Time;durP1;ratioP1;P1;durP2;ratioP2;P2;SDS_P1;SDS_P2;PMS_P1;PMS_P2;Temp;Humidity;BMP_temperature;BMP_pressure;BME280_temperature;BME280_humidity;BME280_pressure;Samples;Min_cycle;Max_cycle;Signal;HPM_P1;HPM_P2
2022/01/26 00:07:43;;;;;;;102.45;46.80;;;;;;;;;;5017140;28;20048;-64
2022/01/26 00:10:09;;;;;;;91.40;46.60;;;;;;;;;;5017170;28;20112;-63
2022/01/26 00:12:36;;;;;;;98.70;47.63;;;;;;;;;;5017157;28;20088;-64
2022/01/26 00:15:02;;;;;;;99.90;46.60;;;;;;;;;;5015871;28;20054;-64
2022/01/26 00:17:28;;;;;;;95.55;43.55;;;;;;;;;;5017111;28;20025;-63
2022/01/26 00:20:03;;;;;;;87.75;44.72;;;;;;;;;;5015891;28;20129;-64
2022/01/26 00:22:53;;;;;;;93.00;42.92;;;;;;;;;;5015745;28;20390;-66
2022/01/26 00:27:57;;;;;;;92.88;43.38;;;;;;;;;;5016918;28;20034;-63
2022/01/26 00:38:39;;;;;;;87.72;40.22;;;;;;;;;;4999497;28;20146;-66
2022/01/26 00:41:10;;;;;;;81.97;38.00;;;;;;;;;;5035227;28;20040;-66
2022/01/26 00:43:37;;;;;;;85.47;40.80;;;;;;;;;;5036500;28;20025;-65
2022/01/26 00:46:06;;;;;;;84.18;39.47;;;;;;;;;;5036433;28;20029;-66
2022/01/26 00:48:33;;;;;;;89.35;39.22;;;;;;;;;;5036350;28;20036;-65
2022/01/26 00:51:03;;;;;;;73.40;35.15;;;;;;;;;;5036239;28;20382;-65
2022/01/26 00:53:44;;;;;;;84.05;36.58;;;;;;;;;;5036310;28;20030;-66
2022/01/26 00:56:11;;;;;;;76.72;35.88;;;;;;;;;;5036276;28;20031;-65
2022/01/26 00:58:37;;;;;;;67.38;31.98;;;;;;;;;;5035891;28;20476;-64
2022/01/26 01:01:05;;;;;;;64.38;30.48;;;;;;;;;;5036077;28;20025;-64
2022/01/26 01:03:34;;;;;;;57.75;28.05;;;;;;;;;;5036140;28;20033;-65
2022/01/26 01:06:13;;;;;;;56.08;27.00;;;;;;;;;;5036007;28;20053;-66
2022/01/26 01:08:41;;;;;;;53.95;25.83;;;;;;;;;;5034436;28;20021;-65
2022/01/26 01:11:08;;;;;;;56.08;25.33;;;;;;;;;;5035879;28;20034;-64
2022/01/26 01:13:37;;;;;;;46.45;24.40;;;;;;;;;;5034604;28;20069;-64
2022/01/26 01:16:05;;;;;;;48.08;23.40;;;;;;;;;;5035866;28;20036;-65
2022/01/26 01:22:02;;;;;;;50.60;24.45;;;;;;;;;;5035782;28;20512;-64
2022/01/26 01:29:20;;;;;;;41.88;21.77;;;;;;;;;;5035574;28;20488;-64
2022/01/26 01:31:56;;;;;;;42.60;21.05;;;;;;;;;;5035581;28;20083;-64
2022/01/26 01:34:29;;;;;;;39.60;19.98;;;;;;;;;;5035589;28;20025;-64
2022/01/26 01:37:02;;;;;;;40.70;19.88;;;;;;;;;;5035563;28;20029;-63
2022/01/26 01:39:33;;;;;;;43.47;20.85;;;;;;;;;;5034214;28;20025;-64
2022/01/26 01:42:00;;;;;;;37.83;19.07;;;;;;;;;;5035515;28;20022;-64
2022/01/26 01:44:26;;;;;;;37.47;19.83;;;;;;;;;;5037253;28;20108;-66
2022/01/26 01:46:54;;;;;;;36.17;20.33;;;;;;;;;;5035686;28;20101;-64
2022/01/26 01:49:20;;;;;;;49.72;21.85;;;;;;;;;;5035174;28;20084;-64
2022/01/26 01:51:52;;;;;;;43.40;21.17;;;;;;;;;;5035192;28;20060;-63
2022/01/26 01:54:19;;;;;;;35.30;18.77;;;;;;;;;;5035184;28;20029;-64
2022/01/26 01:56:49;;;;;;;42.78;21.30;;;;;;;;;;5033794;28;20083;-63
2022/01/26 01:59:16;;;;;;;44.47;21.30;;;;;;;;;;5033742;28;20470;-63
2022/01/26 02:01:42;;;;;;;40.33;20.85;;;;;;;;;;5034963;28;20033;-65
2022/01/26 02:04:08;;;;;;;38.42;20.23;;;;;;;;;;5035304;28;20561;-64
2022/01/26 02:06:35;;;;;;;41.00;20.45;;;;;;;;;;5033553;28;20030;-63
2022/01/26 02:09:02;;;;;;;33.30;19.20;;;;;;;;;;5034811;28;20032;-63
2022/01/26 02:11:50;;;;;;;31.73;17.48;;;;;;;;;;5032370;28;20434;-64
2022/01/26 02:14:31;;;;;;;31.60;16.95;;;;;;;;;;5034821;28;20041;-63
2022/01/26 02:17:16;;;;;;;31.60;16.80;;;;;;;;;;5034794;28;20035;-64
2022/01/26 02:55:39;;;;;;;38.15;19.45;;;;;;;;;;5033633;28;20080;-62
2022/01/26 03:03:21;;;;;;;36.03;18.95;;;;;;;;;;5033871;28;20037;-62
2022/01/26 03:05:59;;;;;;;39.63;18.90;;;;;;;;;;5033861;28;20021;-63
2022/01/26 03:08:33;;;;;;;41.05;19.85;;;;;;;;;;5033813;28;20029;-63
2022/01/26 03:11:07;;;;;;;38.58;20.20;;;;;;;;;;5033389;28;20081;-62
2022/01/26 03:13:35;;;;;;;37.25;19.38;;;;;;;;;;5032421;28;20033;-62
2022/01/26 03:16:09;;;;;;;37.58;20.25;;;;;;;;;;5033654;28;20068;-62
2022/01/26 03:18:58;;;;;;;43.97;21.27;;;;;;;;;;5033648;28;20022;-63
2022/01/26 03:21:33;;;;;;;38.65;20.27;;;;;;;;;;5033605;28;20040;-62
2022/01/26 03:35:04;;;;;;;34.17;19.67;;;;;;;;;;4991560;28;20057;-63
2022/01/26 03:37:37;;;;;;;35.17;19.05;;;;;;;;;;5023988;28;20041;-63
2022/01/26 03:40:12;;;;;;;34.63;18.85;;;;;;;;;;5033607;28;20037;-64
2022/01/26 03:42:38;;;;;;;35.22;18.48;;;;;;;;;;5033327;28;20032;-62
2022/01/26 03:45:05;;;;;;;27.90;16.63;;;;;;;;;;5031943;28;20033;-62
2022/01/26 03:47:36;;;;;;;35.85;16.67;;;;;;;;;;5033178;28;20175;-62
2022/01/26 03:50:02;;;;;;;34.13;17.85;;;;;;;;;;5032794;28;20390;-63
2022/01/26 03:52:28;;;;;;;31.17;16.85;;;;;;;;;;5033094;28;20083;-62
2022/01/26 03:54:55;;;;;;;28.65;15.40;;;;;;;;;;5032049;28;20036;-66
2022/01/26 03:57:21;;;;;;;27.17;14.90;;;;;;;;;;5035327;28;20036;-63
2022/01/26 03:59:47;;;;;;;27.83;14.70;;;;;;;;;;5033458;28;20029;-63
2022/01/26 04:02:13;;;;;;;23.27;14.35;;;;;;;;;;5031664;28;20025;-63
2022/01/26 04:04:47;;;;;;;28.50;15.00;;;;;;;;;;5033068;28;20057;-63
2022/01/26 04:07:13;;;;;;;30.65;14.43;;;;;;;;;;5031489;28;20113;-64
2022/01/26 04:09:39;;;;;;;29.92;16.50;;;;;;;;;;5032866;28;20037;-63
2022/01/26 04:12:06;;;;;;;32.55;16.42;;;;;;;;;;5032463;28;20141;-63
2022/01/26 04:14:34;;;;;;;31.08;16.17;;;;;;;;;;5031700;28;20120;-62
2022/01/26 04:17:00;;;;;;;33.13;16.90;;;;;;;;;;5032944;28;20030;-62
2022/01/26 04:19:30;;;;;;;29.27;15.57;;;;;;;;;;5032890;28;20044;-63
2022/01/26 04:24:36;;;;;;;35.63;16.05;;;;;;;;;;5032862;28;20501;-62
2022/01/26 04:27:16;;;;;;;29.15;16.10;;;;;;;;;;5032881;28;20029;-62
2022/01/26 04:29:43;;;;;;;32.10;16.10;;;;;;;;;;5031444;28;20029;-62
2022/01/26 04:32:12;;;;;;;31.30;17.25;;;;;;;;;;5032691;28;20021;-63
2022/01/26 04:34:39;;;;;;;30.50;16.13;;;;;;;;;;5032806;28;20018;-64
2022/01/26 04:37:19;;;;;;;32.83;17.60;;;;;;;;;;5032722;28;20037;-62
2022/01/26 04:39:53;;;;;;;40.53;18.45;;;;;;;;;;5032742;28;20056;-62
2022/01/26 04:42:23;;;;;;;38.03;18.17;;;;;;;;;;5032694;28;20029;-62
2022/01/26 04:44:57;;;;;;;32.30;18.23;;;;;;;;;;5032678;28;20454;-62
2022/01/26 04:47:23;;;;;;;37.10;18.42;;;;;;;;;;5032705;28;20033;-62
2022/01/26 04:49:49;;;;;;;33.40;19.00;;;;;;;;;;5035063;28;20116;-62
2022/01/26 04:52:16;;;;;;;37.35;18.45;;;;;;;;;;5036288;28;20064;-61
2022/01/26 04:54:42;;;;;;;37.90;18.58;;;;;;;;;;5035050;28;20088;-62
2022/01/26 04:57:08;;;;;;;37.42;18.83;;;;;;;;;;5036344;28;20029;-62
2022/01/26 04:59:34;;;;;;;38.70;20.30;;;;;;;;;;5036504;28;20037;-63
2022/01/26 05:02:01;;;;;;;38.22;19.38;;;;;;;;;;5036713;28;20041;-62
2022/01/26 05:04:27;;;;;;;41.85;20.48;;;;;;;;;;5035345;28;20113;-63
2022/01/26 05:06:53;;;;;;;40.75;20.23;;;;;;;;;;5034909;28;20481;-62
2022/01/26 05:09:21;;;;;;;32.45;18.50;;;;;;;;;;5036297;28;20021;-62
2022/01/26 05:11:50;;;;;;;39.55;20.52;;;;;;;;;;5035930;28;20171;-62
2022/01/26 05:14:16;;;;;;;36.92;19.38;;;;;;;;;;5036304;28;20525;-62
2022/01/26 05:16:42;;;;;;;36.15;17.85;;;;;;;;;;5035950;28;20032;-62
2022/01/26 05:19:09;;;;;;;39.03;18.73;;;;;;;;;;5035810;28;20523;-63
2022/01/26 05:21:36;;;;;;;41.00;19.05;;;;;;;;;;5035844;28;20678;-63
2022/01/26 05:24:02;;;;;;;30.65;18.55;;;;;;;;;;5035830;28;20120;-62
2022/01/26 05:26:28;;;;;;;36.17;18.38;;;;;;;;;;5035405;28;20487;-62
2022/01/26 05:28:55;;;;;;;36.17;17.90;;;;;;;;;;5035603;28;20108;-62
2022/01/26 05:31:21;;;;;;;33.28;18.50;;;;;;;;;;5035293;28;20128;-63
2022/01/26 05:33:48;;;;;;;36.88;19.10;;;;;;;;;;5035233;28;20445;-63
2022/01/26 05:36:14;;;;;;;38.33;18.73;;;;;;;;;;5034249;28;20032;-62
2022/01/26 05:38:40;;;;;;;34.50;19.15;;;;;;;;;;5035448;28;20113;-63
2022/01/26 05:41:09;;;;;;;35.80;19.30;;;;;;;;;;5034086;28;20033;-63
2022/01/26 05:43:35;;;;;;;48.75;20.33;;;;;;;;;;5034108;28;20098;-63
2022/01/26 05:46:06;;;;;;;47.05;22.00;;;;;;;;;;5035123;28;20092;-64
2022/01/26 05:48:34;;;;;;;40.45;20.92;;;;;;;;;;5035366;28;20083;-63
2022/01/26 05:51:08;;;;;;;52.22;23.85;;;;;;;;;;5034943;28;20421;-63
2022/01/26 05:53:35;;;;;;;46.85;24.55;;;;;;;;;;5035293;28;20048;-62
2022/01/26 05:56:02;;;;;;;49.67;24.02;;;;;;;;;;5035172;28;20100;-63
2022/01/26 05:58:28;;;;;;;51.45;24.23;;;;;;;;;;5035109;28;20136;-63
2022/01/26 06:00:54;;;;;;;58.75;27.15;;;;;;;;;;5034643;28;20030;-63
2022/01/26 06:03:21;;;;;;;47.92;24.92;;;;;;;;;;5034962;28;20028;-63
2022/01/26 06:05:47;;;;;;;50.65;26.13;;;;;;;;;;5035482;28;20121;-63
2022/01/26 06:08:13;;;;;;;43.15;21.85;;;;;;;;;;5036153;28;20024;-62
2022/01/26 06:10:39;;;;;;;41.47;20.92;;;;;;;;;;5033213;28;20053;-62
2022/01/26 06:13:05;;;;;;;38.05;20.45;;;;;;;;;;5032980;28;20374;-63
2022/01/26 06:15:32;;;;;;;46.97;22.70;;;;;;;;;;5031606;28;20454;-63
2022/01/26 06:17:58;;;;;;;51.92;27.92;;;;;;;;;;5014508;28;20109;-63
2022/01/26 06:20:24;;;;;;;73.95;35.75;;;;;;;;;;5014580;28;20041;-63
2022/01/26 06:22:50;;;;;;;79.28;36.70;;;;;;;;;;5014226;28;20037;-63
2022/01/26 06:25:17;;;;;;;66.97;32.33;;;;;;;;;;5014892;28;20024;-63
2022/01/26 06:27:44;;;;;;;58.30;30.70;;;;;;;;;;5012693;28;20022;-64
2022/01/26 06:30:11;;;;;;;54.53;28.58;;;;;;;;;;5013911;28;20065;-63
2022/01/26 06:32:38;;;;;;;50.80;26.65;;;;;;;;;;5013726;28;20464;-63
2022/01/26 06:35:05;;;;;;;43.80;25.75;;;;;;;;;;5014596;28;20033;-63
2022/01/26 06:37:31;;;;;;;54.15;25.40;;;;;;;;;;5013140;28;20022;-62
2022/01/26 06:39:57;;;;;;;57.67;29.85;;;;;;;;;;5014102;28;20049;-64
2022/01/26 06:42:28;;;;;;;51.25;24.83;;;;;;;;;;5012759;28;20033;-64
2022/01/26 06:49:53;;;;;;;51.47;26.80;;;;;;;;;;5014124;28;20486;-63
2022/01/26 06:52:20;;;;;;;58.72;27.90;;;;;;;;;;5012712;28;20034;-62
2022/01/26 06:54:46;;;;;;;70.72;31.15;;;;;;;;;;5014083;28;20041;-62
2022/01/26 06:57:12;;;;;;;63.17;29.80;;;;;;;;;;5015471;28;20022;-62
2022/01/26 06:59:38;;;;;;;55.42;26.67;;;;;;;;;;5032307;28;20120;-66
2022/01/26 07:02:05;;;;;;;57.15;24.95;;;;;;;;;;5033472;28;20032;-65
2022/01/26 07:04:31;;;;;;;50.17;26.80;;;;;;;;;;5033272;28;20029;-63
2022/01/26 07:06:57;;;;;;;52.45;28.23;;;;;;;;;;5033683;28;20083;-64
2022/01/26 07:09:23;;;;;;;78.15;37.53;;;;;;;;;;5032126;28;20037;-63
2022/01/26 07:11:49;;;;;;;58.05;29.80;;;;;;;;;;5032589;28;20195;-62
2022/01/26 07:19:45;;;;;;;52.30;26.83;;;;;;;;;;5033030;28;20025;-63
2022/01/26 07:19:55;;;;;;;54.80;27.13;;;;;;;;;;5033431;28;20036;-63
2022/01/26 07:22:21;;;;;;;50.45;26.70;;;;;;;;;;5031846;28;20017;-62
2022/01/26 07:24:47;;;;;;;57.30;28.90;;;;;;;;;;5031953;28;20470;-63
2022/01/26 07:27:14;;;;;;;56.08;29.42;;;;;;;;;;5033028;28;20030;-63
2022/01/26 07:29:40;;;;;;;53.47;29.05;;;;;;;;;;5032554;28;20371;-62
2022/01/26 07:32:07;;;;;;;59.03;29.10;;;;;;;;;;5031613;28;20061;-64
2022/01/26 07:34:33;;;;;;;59.95;28.40;;;;;;;;;;5031716;28;20489;-64
2022/01/26 07:37:04;;;;;;;53.78;27.23;;;;;;;;;;5032834;28;20030;-64
2022/01/26 07:39:43;;;;;;;60.22;29.83;;;;;;;;;;5033051;28;20097;-64
2022/01/26 07:42:10;;;;;;;62.80;30.50;;;;;;;;;;5031516;28;20026;-63
2022/01/26 07:44:36;;;;;;;69.78;31.30;;;;;;;;;;5031482;28;20359;-63
2022/01/26 07:47:03;;;;;;;64.05;29.05;;;;;;;;;;5033125;28;20030;-63
2022/01/26 07:49:29;;;;;;;51.13;26.90;;;;;;;;;;5033056;28;20025;-63
2022/01/26 07:51:55;;;;;;;57.80;30.27;;;;;;;;;;5033121;28;20021;-63
2022/01/26 07:54:23;;;;;;;57.58;29.05;;;;;;;;;;5031750;28;20029;-64
2022/01/26 07:56:49;;;;;;;55.35;29.45;;;;;;;;;;5033116;28;20104;-64
2022/01/26 07:59:15;;;;;;;61.10;28.73;;;;;;;;;;5031509;28;20022;-66
2022/01/26 08:01:41;;;;;;;60.40;29.63;;;;;;;;;;5026741;28;20022;-71
2022/01/26 08:04:07;;;;;;;55.92;28.55;;;;;;;;;;5022606;28;20022;-67
2022/01/26 08:06:34;;;;;;;65.05;30.85;;;;;;;;;;5015640;28;20021;-65
2022/01/26 08:09:01;;;;;;;58.40;29.17;;;;;;;;;;5032884;28;20029;-63
2022/01/26 08:11:27;;;;;;;53.13;28.40;;;;;;;;;;5032270;28;20057;-62
2022/01/26 08:13:53;;;;;;;59.55;30.80;;;;;;;;;;5032774;28;20025;-64
2022/01/26 08:16:20;;;;;;;56.30;30.20;;;;;;;;;;5032864;28;20037;-64
2022/01/26 08:18:46;;;;;;;55.28;30.13;;;;;;;;;;5032775;28;20034;-65
2022/01/26 08:21:14;;;;;;;62.85;31.63;;;;;;;;;;5032740;28;20033;-65
2022/01/26 08:23:43;;;;;;;59.25;31.40;;;;;;;;;;5035288;28;20033;-62
2022/01/26 08:26:10;;;;;;;62.55;32.80;;;;;;;;;;5033638;28;20029;-62
2022/01/26 08:28:39;;;;;;;73.43;34.28;;;;;;;;;;5035884;28;20033;-67
2022/01/26 08:31:06;;;;;;;62.47;35.15;;;;;;;;;;5036202;28;20107;-66
2022/01/26 08:33:32;;;;;;;63.60;34.83;;;;;;;;;;5036338;28;20422;-65
2022/01/26 08:35:58;;;;;;;73.32;35.55;;;;;;;;;;5036440;28;20026;-66
2022/01/26 08:38:26;;;;;;;79.30;39.42;;;;;;;;;;5035812;28;20021;-65
2022/01/26 08:40:52;;;;;;;79.13;38.70;;;;;;;;;;5036046;28;20025;-63
2022/01/26 08:43:18;;;;;;;68.13;35.28;;;;;;;;;;5034576;28;20480;-62
2022/01/26 08:45:46;;;;;;;77.55;39.00;;;;;;;;;;5035629;28;20080;-63
2022/01/26 08:48:12;;;;;;;83.80;40.17;;;;;;;;;;5035676;28;20469;-71
2022/01/26 08:50:38;;;;;;;102.68;45.65;;;;;;;;;;5034805;28;20040;-63
2022/01/26 08:53:06;;;;;;;86.88;41.85;;;;;;;;;;5036181;28;20109;-65
2022/01/26 08:55:35;;;;;;;69.45;37.30;;;;;;;;;;5035741;28;20029;-64
2022/01/26 08:58:01;;;;;;;70.13;36.08;;;;;;;;;;5036669;28;20045;-66
2022/01/26 09:00:27;;;;;;;71.35;37.35;;;;;;;;;;5038231;28;20079;-65
2022/01/26 09:02:55;;;;;;;88.30;40.75;;;;;;;;;;5039973;28;20090;-66
2022/01/26 09:05:21;;;;;;;72.55;37.88;;;;;;;;;;5040648;28;20025;-66
2022/01/26 09:07:49;;;;;;;73.88;37.08;;;;;;;;;;5037585;28;20030;-68
2022/01/26 09:10:16;;;;;;;88.10;41.22;;;;;;;;;;5037811;28;20041;-65
2022/01/26 09:12:44;;;;;;;86.65;41.95;;;;;;;;;;5040000;28;20040;-65
2022/01/26 09:15:11;;;;;;;74.97;35.53;;;;;;;;;;5038512;28;20029;-65
2022/01/26 09:17:38;;;;;;;66.22;32.80;;;;;;;;;;5039696;28;20018;-65
2022/01/26 09:20:05;;;;;;;84.53;38.72;;;;;;;;;;5039339;28;20033;-66
2022/01/26 09:22:32;;;;;;;85.43;38.97;;;;;;;;;;5038616;28;20081;-67
2022/01/26 09:24:58;;;;;;;73.50;36.58;;;;;;;;;;5035387;28;20029;-65
2022/01/26 09:27:24;;;;;;;65.63;32.72;;;;;;;;;;5035317;28;20037;-64
2022/01/26 09:29:51;;;;;;;71.30;34.47;;;;;;;;;;5035108;28;20363;-66
2022/01/26 09:32:17;;;;;;;75.35;34.67;;;;;;;;;;5035165;28;20025;-65
2022/01/26 09:34:44;;;;;;;70.35;35.47;;;;;;;;;;5034663;28;20025;-67
2022/01/26 09:37:12;;;;;;;67.50;34.45;;;;;;;;;;5035407;28;20508;-65
2022/01/26 09:39:39;;;;;;;62.65;34.35;;;;;;;;;;5035368;28;20024;-66
2022/01/26 09:42:06;;;;;;;78.60;38.97;;;;;;;;;;5033975;28;20030;-65
2022/01/26 09:44:33;;;;;;;64.45;34.25;;;;;;;;;;5035245;28;20116;-64
2022/01/26 09:46:59;;;;;;;62.85;34.88;;;;;;;;;;5034863;28;20500;-67
2022/01/26 09:49:32;;;;;;;65.97;35.05;;;;;;;;;;5034889;28;20025;-67
2022/01/26 09:52:31;;;;;;;65.28;34.00;;;;;;;;;;5035137;28;20030;-66
2022/01/26 09:55:01;;;;;;;60.13;30.95;;;;;;;;;;5033442;28;20025;-66
2022/01/26 09:57:27;;;;;;;55.95;30.65;;;;;;;;;;5035031;28;20021;-66
2022/01/26 09:59:54;;;;;;;58.60;30.17;;;;;;;;;;5034905;28;20028;-66
2022/01/26 10:02:21;;;;;;;53.72;30.23;;;;;;;;;;5033247;28;20485;-67
2022/01/26 10:04:47;;;;;;;58.38;28.65;;;;;;;;;;5034701;28;20033;-67
2022/01/26 10:07:22;;;;;;;57.33;30.05;;;;;;;;;;5033180;28;20031;-67
2022/01/26 10:10:02;;;;;;;64.55;32.42;;;;;;;;;;5034714;28;20055;-67
2022/01/26 10:18:04;;;;;;;68.70;40.20;;;;;;;;;;5034518;28;20508;-65
2022/01/26 10:20:47;;;;;;;60.15;30.80;;;;;;;;;;5031870;28;20034;-63
2022/01/26 10:23:17;;;;;;;73.88;34.67;;;;;;;;;;5031163;28;20109;-65
2022/01/26 10:25:45;;;;;;;76.95;36.67;;;;;;;;;;5032849;28;20029;-66
2022/01/26 10:28:13;;;;;;;80.43;38.75;;;;;;;;;;5034332;28;20029;-67
2022/01/26 10:30:47;;;;;;;80.60;40.28;;;;;;;;;;5033967;28;20044;-66
2022/01/26 10:33:14;;;;;;;91.32;42.28;;;;;;;;;;5032612;28;20486;-67
2022/01/26 10:35:40;;;;;;;86.55;37.83;;;;;;;;;;5034048;28;20028;-68
2022/01/26 10:38:06;;;;;;;76.45;37.70;;;;;;;;;;5033756;28;20029;-68
2022/01/26 10:40:34;;;;;;;67.95;33.03;;;;;;;;;;5033764;28;20072;-65
2022/01/26 10:43:10;;;;;;;57.58;30.30;;;;;;;;;;5034017;28;20021;-64
2022/01/26 10:45:50;;;;;;;56.75;27.38;;;;;;;;;;5032118;28;20025;-68
2022/01/26 10:48:42;;;;;;;47.22;26.48;;;;;;;;;;5033809;28;20025;-64
2022/01/26 10:53:48;;;;;;;52.53;28.27;;;;;;;;;;5034037;28;20033;-63
2022/01/26 10:56:14;;;;;;;54.22;29.17;;;;;;;;;;5030365;28;20030;-65
2022/01/26 10:58:41;;;;;;;54.97;28.60;;;;;;;;;;5020421;28;20026;-64
2022/01/26 11:01:08;;;;;;;53.38;27.88;;;;;;;;;;5022245;28;20025;-63
2022/01/26 11:03:34;;;;;;;50.63;27.65;;;;;;;;;;5019703;28;20022;-63
2022/01/26 11:06:04;;;;;;;52.47;26.77;;;;;;;;;;5013700;28;20129;-67
2022/01/26 11:08:30;;;;;;;46.72;25.75;;;;;;;;;;5014349;28;20462;-70
2022/01/26 11:10:57;;;;;;;51.10;25.65;;;;;;;;;;5012364;28;20061;-69
2022/01/26 11:13:24;;;;;;;45.13;24.33;;;;;;;;;;5013816;28;20109;-68
2022/01/26 11:15:50;;;;;;;51.22;26.40;;;;;;;;;;5013731;28;20040;-68
2022/01/26 11:18:22;;;;;;;51.83;27.17;;;;;;;;;;5013612;28;20025;-67
2022/01/26 11:20:49;;;;;;;;;;;;;;;;;;5014361;28;20129;-65
2022/01/26 11:23:17;;;;;;;61.58;31.50;;;;;;;;;;5013853;28;19957;-65
2022/01/26 11:25:45;;;;;;;58.40;30.73;;;;;;;;;;5013428;28;20109;-68
2022/01/26 11:28:24;;;;;;;64.03;32.97;;;;;;;;;;5013791;28;20033;-65
2022/01/26 11:30:51;;;;;;;63.90;31.13;;;;;;;;;;5013256;28;20352;-67
2022/01/26 11:33:19;;;;;;;58.40;28.40;;;;;;;;;;5013958;28;20041;-69
2022/01/26 11:35:48;;;;;;;56.97;29.80;;;;;;;;;;5013675;28;20053;-72
2022/01/26 11:46:58;;;;;;;54.90;27.05;;;;;;;;;;5013369;28;20037;-67
2022/01/26 11:49:26;;;;;;;55.08;29.40;;;;;;;;;;5043492;28;20428;-71
2022/01/26 11:51:55;;;;;;;51.80;28.45;;;;;;;;;;5013285;28;20120;-71
2022/01/26 11:54:23;;;;;;;53.58;28.52;;;;;;;;;;5013289;28;20117;-70
2022/01/26 11:57:02;;;;;;;64.50;31.17;;;;;;;;;;5012026;28;20026;-70
2022/01/26 11:59:31;;;;;;;61.25;28.77;;;;;;;;;;5012956;28;20041;-71
2022/01/26 12:02:06;;;;;;;57.22;29.98;;;;;;;;;;5013275;28;20111;-71
2022/01/26 12:04:34;;;;;;;76.47;36.17;;;;;;;;;;5011948;28;20125;-68
2022/01/26 12:07:10;;;;;;;56.53;28.23;;;;;;;;;;5013196;28;20076;-66
2022/01/26 12:09:38;;;;;;;56.35;29.42;;;;;;;;;;5012418;28;20407;-68
2022/01/26 12:12:05;;;;;;;50.65;28.58;;;;;;;;;;5010865;28;20123;-67
2022/01/26 12:14:33;;;;;;;66.57;34.05;;;;;;;;;;5013676;28;20076;-65
2022/01/26 12:17:03;;;;;;;67.97;34.25;;;;;;;;;;5018293;28;20517;-66
2022/01/26 12:19:41;;;;;;;68.07;30.88;;;;;;;;;;5012616;28;20406;-66
2022/01/26 12:36:16;;;;;;;84.78;38.90;;;;;;;;;;5012668;28;20041;-66
2022/01/26 12:38:49;;;;;;;60.67;31.98;;;;;;;;;;5012419;28;20033;-65
2022/01/26 12:43:49;;;;;;;56.33;29.35;;;;;;;;;;5012666;28;20494;-64
2022/01/26 12:46:17;;;;;;;58.65;29.73;;;;;;;;;;5012445;28;20088;-68
2022/01/26 12:48:48;;;;;;;50.20;27.88;;;;;;;;;;5011506;28;20125;-66
2022/01/26 12:51:14;;;;;;;57.83;31.73;;;;;;;;;;5012621;28;20034;-67
2022/01/26 12:53:40;;;;;;;64.72;34.30;;;;;;;;;;5012519;28;20108;-66
2022/01/26 12:56:08;;;;;;;53.10;29.23;;;;;;;;;;5012787;28;20500;-64
2022/01/26 12:58:38;;;;;;;61.08;30.92;;;;;;;;;;5015067;28;20553;-66
2022/01/26 13:01:08;;;;;;;56.28;30.83;;;;;;;;;;5023084;28;20100;-63
2022/01/26 13:03:41;;;;;;;69.65;31.90;;;;;;;;;;5021956;28;20026;-67
2022/01/26 13:06:08;;;;;;;69.55;35.00;;;;;;;;;;5012815;28;20529;-65
2022/01/26 13:09:06;;;;;;;64.95;36.00;;;;;;;;;;5011028;28;20030;-63
2022/01/26 13:11:34;;;;;;;58.80;31.70;;;;;;;;;;4981840;28;20160;-63
2022/01/26 13:14:10;;;;;;;59.63;31.83;;;;;;;;;;5015923;28;20109;-64
2022/01/26 13:16:39;;;;;;;68.13;36.60;;;;;;;;;;5015684;28;20497;-63
2022/01/26 13:19:32;;;;;;;67.03;35.92;;;;;;;;;;5015907;28;20064;-64
2022/01/26 13:29:57;;;;;;;67.13;34.80;;;;;;;;;;5042495;28;20025;-64
2022/01/26 14:01:45;;;;;;;74.57;38.53;;;;;;;;;;4975587;28;20373;-66
2022/01/26 14:04:13;;;;;;;73.90;35.92;;;;;;;;;;4957321;28;20019;-65
2022/01/26 14:06:39;;;;;;;65.57;34.63;;;;;;;;;;4957143;28;20401;-66
2022/01/26 14:09:05;;;;;;;71.47;37.15;;;;;;;;;;4973599;28;20023;-66
2022/01/26 14:11:31;;;;;;;60.17;32.78;;;;;;;;;;4956443;28;20051;-67
2022/01/26 14:13:59;;;;;;;60.25;32.45;;;;;;;;;;4970816;28;20122;-66
2022/01/26 14:16:28;;;;;;;58.72;31.75;;;;;;;;;;4972705;28;20026;-62
2022/01/26 14:21:40;;;;;;;68.10;35.42;;;;;;;;;;4972769;28;20047;-62
2022/01/26 14:24:26;;;;;;;65.47;33.03;;;;;;;;;;4981553;28;20033;-62
2022/01/26 14:26:57;;;;;;;63.05;32.75;;;;;;;;;;5031532;28;20026;-62
2022/01/26 14:29:34;;;;;;;59.25;31.58;;;;;;;;;;5032645;28;20026;-61
2022/01/26 15:53:24;;;;;;;92.50;46.63;;;;;;;;;;5032718;28;20723;-63
2022/01/26 15:58:29;;;;;;;86.25;42.90;;;;;;;;;;5016404;28;20040;-62
2022/01/26 16:07:04;;;;;;;82.57;42.78;;;;;;;;;;5032126;28;20083;-65
2022/01/26 16:19:38;;;;;;;96.80;48.47;;;;;;;;;;5012703;28;20041;-62
2022/01/26 16:20:44;;;;;;;110.80;54.47;;;;;;;;;;5007261;28;20735;-62
2022/01/26 16:52:20;;;;;;;108.40;49.80;;;;;;;;;;5032684;28;20750;-63
2022/01/26 18:49:11;;;;;;;96.25;46.95;;;;;;;;;;5034202;28;20049;-71
2022/01/26 18:49:40;;;;;;;81.78;42.60;;;;;;;;;;5033748;28;20042;-67
2022/01/26 18:52:07;;;;;;;79.07;39.55;;;;;;;;;;5033926;28;20032;-67
2022/01/26 18:54:37;;;;;;;79.88;40.90;;;;;;;;;;5033719;28;20188;-68
2022/01/26 18:57:05;;;;;;;77.10;38.22;;;;;;;;;;5033967;28;20025;-67
2022/01/26 18:59:31;;;;;;;85.82;40.08;;;;;;;;;;5032521;28;20457;-66
2022/01/26 19:01:58;;;;;;;83.05;39.45;;;;;;;;;;5034230;28;20112;-66
2022/01/26 19:04:33;;;;;;;81.95;41.33;;;;;;;;;;5035266;28;20413;-71
2022/01/26 19:06:59;;;;;;;74.57;37.35;;;;;;;;;;5033098;28;20076;-68
2022/01/26 19:09:28;;;;;;;80.35;39.55;;;;;;;;;;5033261;28;20022;-69
2022/01/26 19:11:55;;;;;;;86.30;43.88;;;;;;;;;;5046115;28;20405;-66
2022/01/26 19:14:25;;;;;;;94.10;47.63;;;;;;;;;;5052215;28;20025;-68
2022/01/26 19:17:05;;;;;;;95.45;46.03;;;;;;;;;;5053333;28;20021;-67
2022/01/26 19:22:14;;;;;;;106.63;49.20;;;;;;;;;;5053124;28;20072;-67
2022/01/26 19:27:30;;;;;;;110.43;52.67;;;;;;;;;;5053387;28;20037;-68
2022/01/26 19:40:21;;;;;;;106.63;53.30;;;;;;;;;;5013095;28;20057;-67
2022/01/26 19:44:17;;;;;;;101.70;52.63;;;;;;;;;;5013478;28;20068;-62
2022/01/26 19:47:10;;;;;;;91.72;46.97;;;;;;;;;;5013478;28;20025;-65
2022/01/26 19:52:17;;;;;;;107.57;49.55;;;;;;;;;;5013067;28;20096;-65
2022/01/26 19:54:46;;;;;;;112.30;50.38;;;;;;;;;;5018172;28;20026;-67
2022/01/26 19:57:12;;;;;;;103.57;48.78;;;;;;;;;;5032869;28;20164;-67
2022/01/26 19:59:38;;;;;;;107.07;49.42;;;;;;;;;;5032993;28;20026;-70
2022/01/26 20:02:05;;;;;;;101.60;48.92;;;;;;;;;;5033281;28;20108;-66
2022/01/26 20:04:33;;;;;;;102.20;50.55;;;;;;;;;;5031493;28;20029;-67
2022/01/26 20:07:04;;;;;;;101.85;50.22;;;;;;;;;;5032935;28;20484;-66
2022/01/26 20:09:36;;;;;;;109.43;53.08;;;;;;;;;;5032967;28;20026;-64
2022/01/26 20:12:07;;;;;;;103.63;52.60;;;;;;;;;;5031010;28;20486;-65
2022/01/26 20:14:35;;;;;;;103.38;52.03;;;;;;;;;;5031569;28;20104;-65
2022/01/26 20:17:02;;;;;;;104.95;53.13;;;;;;;;;;5032831;28;20389;-64
2022/01/26 20:19:29;;;;;;;95.20;49.13;;;;;;;;;;5033609;28;20055;-63
2022/01/26 20:21:55;;;;;;;93.68;46.78;;;;;;;;;;5036727;28;20534;-63
2022/01/26 20:24:21;;;;;;;100.28;49.28;;;;;;;;;;5035459;28;20033;-64
2022/01/26 20:26:49;;;;;;;100.78;50.60;;;;;;;;;;5035522;28;20032;-64
2022/01/26 20:29:16;;;;;;;100.70;50.33;;;;;;;;;;5036724;28;20121;-64
2022/01/26 20:31:42;;;;;;;92.22;47.28;;;;;;;;;;5036532;28;20040;-64
2022/01/26 20:34:10;;;;;;;98.57;49.30;;;;;;;;;;5035267;28;20025;-64
2022/01/26 20:36:36;;;;;;;100.05;50.30;;;;;;;;;;5035222;28;20026;-63
2022/01/26 20:39:04;;;;;;;100.70;50.03;;;;;;;;;;5036555;28;20450;-63
2022/01/26 20:41:30;;;;;;;104.45;53.63;;;;;;;;;;5036547;28;20129;-63
2022/01/26 20:43:56;;;;;;;109.53;50.55;;;;;;;;;;5036405;28;20018;-63
2022/01/26 20:46:22;;;;;;;90.13;46.33;;;;;;;;;;5036366;28;20160;-63
2022/01/26 20:48:49;;;;;;;94.35;45.22;;;;;;;;;;5034971;28;20116;-64
2022/01/26 20:51:15;;;;;;;85.43;44.22;;;;;;;;;;5035963;28;20022;-63
2022/01/26 20:53:43;;;;;;;88.85;45.42;;;;;;;;;;5034850;28;20465;-64
2022/01/26 20:56:10;;;;;;;83.30;44.33;;;;;;;;;;5036304;28;20029;-63
2022/01/26 20:58:36;;;;;;;88.88;47.63;;;;;;;;;;5036223;28;20028;-63
2022/01/26 21:01:03;;;;;;;92.72;45.38;;;;;;;;;;5036246;28;20381;-63
2022/01/26 21:03:29;;;;;;;96.97;48.15;;;;;;;;;;5034322;28;20132;-64
2022/01/26 21:05:56;;;;;;;95.82;46.53;;;;;;;;;;5035866;28;20104;-63
2022/01/26 21:08:22;;;;;;;92.93;45.72;;;;;;;;;;5034799;28;20076;-63
2022/01/26 21:10:52;;;;;;;95.03;46.20;;;;;;;;;;5034350;28;20053;-63
2022/01/26 21:13:19;;;;;;;94.20;45.58;;;;;;;;;;5034548;28;20029;-64
2022/01/26 21:15:45;;;;;;;89.10;42.33;;;;;;;;;;5015628;28;20029;-63
2022/01/26 21:18:13;;;;;;;82.25;43.40;;;;;;;;;;5016333;28;20033;-65
2022/01/26 21:20:39;;;;;;;82.43;42.42;;;;;;;;;;5017143;28;20079;-64
2022/01/26 21:23:06;;;;;;;82.63;41.92;;;;;;;;;;5016149;28;20486;-65
2022/01/26 21:25:32;;;;;;;84.38;43.00;;;;;;;;;;5014293;28;20026;-66
2022/01/26 21:27:58;;;;;;;84.30;41.15;;;;;;;;;;5015881;28;20490;-63